createdAt,value
2018-11-27T00:00:41.322Z,5.00
2018-11-27T00:03:10.194Z,5.00
2018-11-27T00:05:39.317Z,5.00
2018-11-27T00:08:08.309Z,5.00
2018-11-27T00:10:39.031Z,5.00
2018-11-27T00:13:07.790Z,5.10
2018-11-27T00:15:36.480Z,5.00
2018-11-27T00:18:05.515Z,5.10
2018-11-27T00:20:34.201Z,5.10
2018-11-27T00:23:02.939Z,5.00
2018-11-27T00:25:31.739Z,5.10
2018-11-27T00:28:00.511Z,5.10
2018-11-27T00:30:29.217Z,5.10
2018-11-27T00:32:57.863Z,5.10
2018-11-27T00:35:26.610Z,5.00
2018-11-27T00:37:55.324Z,4.90
2018-11-27T00:40:24.617Z,4.90
2018-11-27T00:42:53.402Z,4.90
2018-11-27T00:45:22.406Z,4.90
2018-11-27T00:47:51.640Z,4.90
2018-11-27T00:50:22.607Z,4.90
2018-11-27T00:52:51.374Z,4.80
2018-11-27T00:55:20.800Z,4.90
2018-11-27T00:57:50.697Z,4.90
2018-11-27T01:00:21.630Z,4.90
2018-11-27T01:02:50.369Z,4.90
2018-11-27T01:05:20.470Z,4.80
2018-11-27T01:07:49.207Z,4.90
2018-11-27T01:10:19.032Z,5.00
2018-11-27T01:12:47.760Z,5.00
2018-11-27T01:15:16.896Z,5.00
2018-11-27T01:17:47.806Z,5.00
2018-11-27T01:20:17.863Z,5.00
2018-11-27T01:22:47.581Z,5.00
2018-11-27T01:25:16.364Z,5.00
2018-11-27T01:27:45.068Z,5.00
2018-11-27T01:30:16.727Z,5.00
2018-11-27T01:32:45.705Z,5.00
2018-11-27T01:35:17.469Z,5.00
2018-11-27T01:37:46.727Z,5.00
2018-11-27T01:40:17.524Z,4.90
2018-11-27T01:42:47.104Z,4.80
2018-11-27T01:45:18.379Z,4.90
2018-11-27T01:47:47.359Z,5.00
2018-11-27T01:50:17.122Z,5.00
2018-11-27T01:52:45.949Z,5.00
2018-11-27T01:55:15.830Z,5.00
2018-11-27T01:57:44.894Z,5.00
2018-11-27T02:00:23.054Z,5.00
2018-11-27T02:02:52.226Z,5.00
2018-11-27T02:05:21.423Z,5.00
2018-11-27T02:07:50.135Z,5.00
2018-11-27T02:10:18.852Z,5.00
2018-11-27T02:12:49.259Z,5.00
2018-11-27T02:15:22.115Z,5.00
2018-11-27T02:17:50.920Z,5.00
2018-11-27T02:20:19.666Z,5.10
2018-11-27T02:22:48.682Z,5.10
2018-11-27T02:25:24.167Z,5.00
2018-11-27T02:27:53.240Z,5.00
2018-11-27T02:30:22.853Z,5.00
2018-11-27T02:32:51.660Z,4.90
2018-11-27T02:35:21.863Z,5.00
2018-11-27T02:37:51.888Z,4.90
2018-11-27T02:40:20.717Z,4.90
2018-11-27T02:42:49.539Z,5.00
2018-11-27T02:45:25.848Z,4.90
2018-11-27T02:47:55.120Z,5.00
2018-11-27T02:50:24.649Z,4.90
2018-11-27T02:52:53.424Z,4.90
2018-11-27T02:55:26.415Z,4.90
2018-11-27T02:57:55.193Z,4.90
2018-11-27T03:00:25.095Z,5.00
2018-11-27T03:02:53.861Z,4.90
2018-11-27T03:05:35.088Z,5.00
2018-11-27T03:08:03.870Z,5.00
2018-11-27T03:10:32.841Z,4.90
2018-11-27T03:13:01.556Z,5.00
2018-11-27T03:15:30.443Z,5.00
2018-11-27T03:17:59.195Z,5.00
2018-11-27T03:20:27.904Z,4.90
2018-11-27T03:22:56.707Z,4.90
2018-11-27T03:25:25.330Z,4.80
2018-11-27T03:27:54.978Z,4.80
2018-11-27T03:30:26.133Z,4.80
2018-11-27T03:32:54.916Z,4.90
2018-11-27T03:35:24.729Z,4.90
2018-11-27T03:37:53.575Z,5.00
2018-11-27T03:40:27.030Z,4.90
2018-11-27T03:42:55.943Z,4.90
2018-11-27T03:45:25.330Z,5.00
2018-11-27T03:47:54.583Z,4.90
2018-11-27T03:50:25.746Z,4.90
2018-11-27T03:52:55.222Z,5.00
2018-11-27T03:55:24.003Z,4.90
2018-11-27T03:57:52.751Z,4.90
2018-11-27T04:00:25.412Z,5.00
2018-11-27T04:02:59.219Z,5.10
2018-11-27T04:05:27.932Z,5.10
2018-11-27T04:07:56.632Z,5.00
2018-11-27T04:10:25.278Z,5.00
2018-11-27T04:12:54.701Z,5.00
2018-11-27T04:15:23.454Z,5.00
2018-11-27T04:17:52.371Z,4.90
2018-11-27T04:20:21.083Z,5.00
2018-11-27T04:22:49.833Z,5.00
2018-11-27T04:25:19.074Z,4.90
2018-11-27T04:27:48.194Z,4.90
2018-11-27T04:30:18.799Z,5.00
2018-11-27T04:32:47.660Z,5.00
2018-11-27T04:35:18.722Z,5.00
2018-11-27T04:37:47.604Z,5.10
2018-11-27T04:40:17.488Z,5.10
2018-11-27T04:42:46.817Z,5.20
2018-11-27T04:45:21.927Z,5.10
2018-11-27T04:47:50.650Z,5.10
2018-11-27T04:50:19.718Z,5.10
2018-11-27T04:52:48.474Z,5.10
2018-11-27T04:55:18.209Z,5.00
2018-11-27T04:57:48.147Z,5.10
2018-11-27T05:00:21.814Z,5.10
2018-11-27T05:02:50.626Z,5.10
2018-11-27T05:05:19.371Z,5.10
2018-11-27T05:07:48.041Z,5.10
2018-11-27T05:10:18.526Z,5.10
2018-11-27T05:12:47.330Z,5.10
2018-11-27T05:15:25.902Z,5.10
2018-11-27T05:17:56.264Z,5.10
2018-11-27T05:20:25.015Z,5.10
2018-11-27T05:22:53.677Z,5.10
2018-11-27T05:25:22.429Z,5.10
2018-11-27T05:27:53.976Z,5.10
2018-11-27T05:30:26.737Z,5.10
2018-11-27T05:32:56.346Z,5.10
2018-11-27T05:35:28.045Z,5.00
2018-11-27T05:37:56.922Z,5.00
2018-11-27T05:40:25.942Z,5.00
2018-11-27T05:42:56.617Z,5.10
2018-11-27T05:45:25.868Z,5.10
2018-11-27T05:47:54.520Z,5.00
2018-11-27T05:50:23.307Z,5.10
2018-11-27T05:52:51.993Z,5.10
2018-11-27T05:55:20.886Z,5.10
2018-11-27T05:57:51.163Z,5.20
2018-11-27T06:00:22.107Z,5.20
2018-11-27T06:02:52.459Z,5.40
2018-11-27T06:05:22.093Z,5.40
2018-11-27T06:07:51.085Z,5.50
2018-11-27T06:10:20.909Z,5.40
2018-11-27T06:15:30.341Z,5.40
2018-11-27T06:18:00.652Z,5.20
2018-11-27T06:20:29.420Z,5.20
2018-11-27T06:22:58.730Z,5.20
2018-11-27T06:25:28.710Z,5.10
2018-11-27T06:28:00.129Z,5.10
2018-11-27T06:30:30.280Z,5.10
2018-11-27T06:32:58.941Z,5.10
2018-11-27T06:35:38.443Z,5.10
2018-11-27T06:38:08.942Z,5.10
2018-11-27T06:40:37.797Z,5.00
2018-11-27T06:43:10.481Z,5.00
2018-11-27T06:45:40.157Z,5.00
2018-11-27T06:48:09.456Z,5.10
2018-11-27T06:50:38.138Z,5.10
2018-11-27T06:53:08.221Z,5.10
2018-11-27T06:55:37.232Z,5.00
2018-11-27T06:58:07.234Z,5.00
2018-11-27T07:00:35.996Z,5.10
2018-11-27T07:03:06.677Z,5.00
2018-11-27T07:05:35.328Z,5.10
2018-11-27T07:08:03.985Z,5.10
2018-11-27T07:10:33.829Z,5.10
2018-11-27T07:13:06.369Z,5.10
2018-11-27T07:15:35.191Z,5.10
2018-11-27T07:18:04.186Z,5.20
2018-11-27T07:20:32.879Z,5.10
2018-11-27T07:23:01.574Z,5.10
2018-11-27T07:25:30.300Z,5.20
2018-11-27T07:27:59.041Z,5.10
2018-11-27T07:30:27.776Z,5.10
2018-11-27T07:32:56.381Z,5.10
2018-11-27T07:35:25.122Z,5.00
2018-11-27T07:37:53.852Z,5.10
2018-11-27T07:40:23.689Z,5.00
2018-11-27T07:43:59.649Z,5.00
2018-11-27T07:46:29.388Z,5.10
2018-11-27T07:48:58.615Z,5.10
2018-11-27T07:51:27.368Z,5.10
2018-11-27T07:53:56.153Z,5.20
2018-11-27T07:56:24.872Z,5.10
2018-11-27T07:58:53.744Z,5.20
2018-11-27T08:01:22.408Z,5.20
2018-11-27T08:03:51.480Z,5.30
2018-11-27T08:06:20.675Z,5.30
2018-11-27T08:08:49.335Z,5.20
2018-11-27T08:14:01.669Z,5.10
2018-11-27T08:16:30.404Z,5.10
2018-11-27T08:18:59.315Z,5.20
2018-11-27T08:21:28.038Z,5.20
2018-11-27T08:23:56.734Z,5.30
2018-11-27T08:26:25.546Z,5.20
2018-11-27T08:28:54.305Z,5.20
2018-11-27T08:31:23.561Z,5.30
2018-11-27T08:33:52.547Z,5.40
2018-11-27T08:36:21.952Z,5.40
2018-11-27T08:38:50.656Z,5.40
2018-11-27T08:41:19.479Z,5.20
2018-11-27T08:43:48.348Z,5.10
2018-11-27T08:46:16.987Z,5.20
2018-11-27T08:48:45.680Z,5.20
2018-11-27T08:51:14.258Z,5.30
2018-11-27T08:53:42.848Z,5.20
2018-11-27T08:56:11.618Z,5.20
2018-11-27T08:58:40.267Z,5.20
2018-11-27T09:01:08.939Z,5.30
2018-11-27T09:03:37.658Z,5.30
2018-11-27T09:06:06.931Z,5.30
2018-11-27T09:08:35.759Z,5.30
2018-11-27T09:11:04.911Z,5.30
2018-11-27T09:13:33.545Z,5.30
2018-11-27T09:16:02.169Z,5.30
2018-11-27T09:18:30.917Z,5.30
2018-11-27T09:20:59.871Z,5.30
2018-11-27T09:26:08.789Z,5.20
2018-11-27T09:28:37.511Z,5.30
2018-11-27T09:31:08.269Z,5.30
2018-11-27T09:33:36.903Z,5.30
2018-11-27T09:36:05.864Z,5.30
2018-11-27T09:38:34.689Z,5.30
2018-11-27T09:41:04.181Z,5.30
2018-11-27T09:43:32.806Z,5.30
2018-11-27T09:46:01.436Z,5.40
2018-11-27T09:48:30.167Z,5.50
2018-11-27T09:50:58.880Z,5.40
2018-11-27T09:53:28.655Z,5.50
2018-11-27T09:55:57.258Z,5.40
2018-11-27T09:58:26.146Z,5.30
2018-11-27T10:00:54.745Z,5.30
2018-11-27T10:03:23.357Z,5.30
2018-11-27T10:05:51.942Z,5.40
2018-11-27T10:08:20.675Z,5.40
2018-11-27T10:10:49.386Z,5.40
2018-11-27T10:13:18.329Z,5.40
2018-11-27T10:15:47.058Z,5.40
2018-11-27T10:18:15.844Z,5.40
2018-11-27T10:20:44.589Z,5.30
2018-11-27T10:23:14.223Z,5.30
2018-11-27T10:25:44.008Z,5.30
2018-11-27T10:28:12.768Z,5.30
2018-11-27T10:30:41.486Z,5.30
2018-11-27T10:33:11.484Z,5.30
2018-11-27T10:35:51.690Z,5.40
2018-11-27T10:38:20.421Z,5.40
2018-11-27T10:40:49.044Z,5.40
2018-11-27T10:43:19.888Z,5.40
2018-11-27T10:45:46.476Z,5.30
2018-11-27T10:48:15.361Z,5.30
2018-11-27T10:50:45.556Z,5.40
2018-11-27T10:53:14.478Z,5.40
2018-11-27T10:55:43.197Z,5.40
2018-11-27T10:58:12.146Z,5.40
2018-11-27T11:00:47.067Z,5.40
2018-11-27T11:03:46.023Z,5.40
2018-11-27T11:06:14.850Z,5.50
2018-11-27T11:08:43.586Z,5.50
2018-11-27T11:11:12.864Z,5.50
2018-11-27T11:13:41.648Z,5.50
2018-11-27T11:16:10.997Z,5.40
2018-11-27T11:18:39.655Z,5.40
2018-11-27T11:21:08.440Z,5.30
2018-11-27T11:23:37.135Z,5.40
2018-11-27T11:26:06.444Z,5.50
2018-11-27T11:28:35.116Z,5.50
2018-11-27T11:31:03.733Z,5.60
2018-11-27T11:33:32.365Z,5.50
2018-11-27T11:36:01.047Z,5.50
2018-11-27T11:38:29.818Z,5.60
2018-11-27T11:40:58.870Z,5.60
2018-11-27T11:43:27.511Z,5.60
2018-11-27T11:45:56.173Z,5.70
2018-11-27T11:48:24.814Z,5.70
2018-11-27T11:50:53.497Z,5.80
2018-11-27T11:53:22.146Z,5.70
2018-11-27T11:55:50.829Z,5.70
2018-11-27T11:58:19.519Z,5.70
2018-11-27T12:00:51.507Z,5.80
2018-11-27T12:03:20.275Z,5.90
2018-11-27T12:05:49.139Z,5.90
2018-11-27T12:08:17.940Z,5.90
2018-11-27T12:10:46.686Z,6.00
2018-11-27T12:13:15.403Z,6.00
2018-11-27T12:15:44.078Z,6.20
2018-11-27T12:18:12.803Z,6.20
2018-11-27T12:20:42.880Z,6.20
2018-11-27T12:23:12.752Z,6.20
2018-11-27T12:25:41.793Z,6.20
2018-11-27T12:28:14.682Z,6.10
2018-11-27T12:30:39.653Z,6.00
2018-11-27T12:33:08.374Z,6.10
2018-11-27T12:35:37.178Z,6.00
2018-11-27T12:38:05.920Z,6.10
2018-11-27T12:40:34.768Z,6.00
2018-11-27T12:43:03.501Z,6.00
2018-11-27T12:45:33.074Z,5.80
2018-11-27T12:48:02.717Z,5.80
2018-11-27T12:50:39.292Z,5.90
2018-11-27T12:53:09.108Z,5.90
2018-11-27T12:55:40.072Z,5.90
2018-11-27T12:58:08.927Z,5.70
2018-11-27T13:00:37.617Z,5.70
2018-11-27T13:03:06.717Z,5.80
2018-11-27T13:05:38.955Z,5.80
2018-11-27T13:08:12.993Z,5.90
2018-11-27T13:10:41.608Z,5.90
2018-11-27T13:13:10.272Z,5.80
2018-11-27T13:15:39.923Z,5.70
2018-11-27T13:18:09.601Z,5.70
2018-11-27T13:20:38.719Z,5.60
2018-11-27T13:23:07.861Z,5.70
2018-11-27T13:25:37.449Z,5.70
2018-11-27T13:28:07.612Z,5.60
2018-11-27T13:30:39.335Z,5.60
2018-11-27T13:33:24.478Z,5.50
2018-11-27T13:35:53.145Z,5.50
2018-11-27T13:38:21.866Z,5.60
2018-11-27T13:40:50.676Z,5.70
2018-11-27T13:43:22.031Z,5.70
2018-11-27T13:45:51.297Z,5.70
2018-11-27T13:48:20.063Z,5.60
2018-11-27T13:50:48.810Z,5.60
2018-11-27T13:53:18.052Z,5.60
2018-11-27T13:55:46.748Z,5.60
2018-11-27T13:58:15.423Z,5.60
2018-11-27T14:00:44.133Z,5.60
2018-11-27T14:03:12.691Z,5.60
2018-11-27T14:05:41.279Z,5.60
2018-11-27T14:08:10.906Z,5.60
2018-11-27T14:10:39.950Z,5.50
2018-11-27T14:13:09.240Z,5.50
2018-11-27T14:15:38.355Z,5.50
2018-11-27T14:18:07.926Z,5.50
2018-11-27T14:20:37.022Z,5.50
2018-11-27T14:23:06.378Z,5.50
2018-11-27T14:25:36.111Z,5.60
2018-11-27T14:28:05.056Z,5.50
2018-11-27T14:30:33.742Z,5.40
2018-11-27T14:33:02.480Z,5.40
2018-11-27T14:35:31.210Z,5.40
2018-11-27T14:37:59.953Z,5.50
2018-11-27T14:40:28.788Z,5.40
2018-11-27T14:42:57.480Z,5.40
2018-11-27T14:45:27.148Z,5.40
2018-11-27T14:47:57.091Z,5.30
2018-11-27T14:50:25.805Z,5.30
2018-11-27T14:52:54.511Z,5.30
2018-11-27T14:55:26.556Z,5.30
2018-11-27T14:57:55.342Z,5.30
2018-11-27T15:00:25.108Z,5.30
2018-11-27T15:02:54.684Z,5.30
2018-11-27T15:05:26.007Z,5.30
2018-11-27T15:07:54.755Z,5.30
2018-11-27T15:10:23.520Z,5.30
2018-11-27T15:12:52.756Z,5.30
2018-11-27T15:15:21.423Z,5.30
2018-11-27T15:17:50.306Z,5.20
2018-11-27T15:20:21.101Z,5.10
2018-11-27T15:22:49.823Z,5.10
2018-11-27T15:25:18.705Z,5.10
2018-11-27T15:27:48.127Z,5.10
2018-11-27T15:30:20.102Z,5.10
2018-11-27T15:32:49.814Z,5.20
2018-11-27T15:35:18.540Z,5.20
2018-11-27T15:37:47.138Z,5.20
2018-11-27T15:40:19.325Z,5.10
2018-11-27T15:42:48.032Z,5.00
2018-11-27T15:45:20.026Z,4.90
2018-11-27T15:47:48.868Z,4.90
2018-11-27T15:50:17.605Z,4.90
2018-11-27T15:52:46.354Z,4.90
2018-11-27T15:55:17.351Z,4.90
2018-11-27T15:57:47.307Z,4.90
2018-11-27T16:00:18.252Z,4.90
2018-11-27T16:02:47.109Z,4.80
2018-11-27T16:05:16.428Z,4.80
2018-11-27T16:07:45.165Z,4.70
2018-11-27T16:10:15.549Z,4.60
2018-11-27T16:12:45.057Z,4.60
2018-11-27T16:15:14.898Z,4.60
2018-11-27T16:17:43.825Z,4.70
2018-11-27T16:20:18.153Z,4.70
2018-11-27T16:22:47.964Z,4.60
2018-11-27T16:25:18.986Z,4.60
2018-11-27T16:27:48.358Z,4.60
2018-11-27T16:30:21.746Z,4.50
2018-11-27T16:32:50.421Z,4.50
2018-11-27T16:35:19.071Z,4.50
2018-11-27T16:37:49.480Z,4.40
2018-11-27T16:40:21.618Z,4.40
2018-11-27T16:42:50.266Z,4.50
2018-11-27T16:45:20.075Z,4.40
2018-11-27T16:47:48.850Z,4.50
2018-11-27T16:50:18.126Z,4.50
2018-11-27T16:52:47.354Z,4.50
2018-11-27T16:55:18.995Z,4.50
2018-11-27T16:57:47.744Z,4.50
2018-11-27T17:00:24.330Z,4.50
2018-11-27T17:02:54.069Z,4.50
2018-11-27T17:05:22.744Z,4.50
2018-11-27T17:07:51.418Z,4.50
2018-11-27T17:10:20.808Z,4.50
2018-11-27T17:12:51.929Z,4.50
2018-11-27T17:15:21.591Z,4.40
2018-11-27T17:17:50.359Z,4.40
2018-11-27T17:20:26.276Z,4.40
2018-11-27T17:22:56.316Z,4.50
2018-11-27T17:25:24.952Z,4.50
2018-11-27T17:27:54.458Z,4.50
2018-11-27T17:30:33.229Z,4.50
2018-11-27T17:33:02.000Z,4.60
2018-11-27T17:35:30.522Z,4.50
2018-11-27T17:37:59.324Z,4.60
2018-11-27T17:40:27.921Z,4.60
2018-11-27T17:42:56.605Z,4.50
2018-11-27T17:45:25.306Z,4.50
2018-11-27T17:47:53.928Z,4.50
2018-11-27T17:50:22.719Z,4.40
2018-11-27T17:52:51.304Z,4.40
2018-11-27T17:55:20.163Z,4.40
2018-11-27T17:57:48.924Z,4.30
2018-11-27T18:00:23.550Z,4.20
2018-11-27T18:02:54.070Z,4.20
2018-11-27T18:05:22.884Z,4.20
2018-11-27T18:07:52.080Z,4.30
2018-11-27T18:10:20.788Z,4.20
2018-11-27T18:12:49.639Z,4.20
2018-11-27T18:15:21.451Z,4.10
2018-11-27T18:17:50.524Z,4.10
2018-11-27T18:20:19.378Z,4.10
2018-11-27T18:22:48.234Z,4.10
2018-11-27T18:25:18.811Z,4.20
2018-11-27T18:27:48.913Z,4.20
2018-11-27T18:30:19.899Z,4.10
2018-11-27T18:32:48.675Z,4.10
2018-11-27T18:35:21.329Z,4.10
2018-11-27T18:37:50.634Z,4.10
2018-11-27T18:40:19.354Z,4.00
2018-11-27T18:42:48.204Z,4.00
2018-11-27T18:45:25.390Z,4.00
2018-11-27T18:47:54.087Z,4.00
2018-11-27T18:50:24.001Z,3.90
2018-11-27T18:52:52.927Z,3.90
2018-11-27T18:55:21.663Z,3.80
2018-11-27T18:57:50.396Z,3.70
2018-11-27T19:00:20.704Z,3.70
2018-11-27T19:02:49.464Z,3.60
2018-11-27T19:05:18.166Z,3.60
2018-11-27T19:07:46.884Z,3.60
2018-11-27T19:10:26.143Z,3.40
2018-11-27T19:12:54.850Z,3.40
2018-11-27T19:15:29.638Z,3.30
2018-11-27T19:18:03.487Z,3.10
2018-11-27T19:20:34.576Z,3.00
2018-11-27T19:23:03.384Z,3.00
2018-11-27T19:25:31.998Z,2.90
2018-11-27T19:28:00.644Z,2.80
2018-11-27T19:30:32.130Z,2.80
2018-11-27T19:32:58.110Z,2.70
2018-11-27T19:35:27.339Z,2.60
2018-11-27T19:37:56.052Z,2.50
2018-11-27T19:40:24.696Z,2.50
2018-11-27T19:42:54.604Z,2.50
2018-11-27T19:45:25.193Z,2.40
2018-11-27T19:47:54.314Z,2.40
2018-11-27T19:50:23.307Z,2.30
2018-11-27T19:52:55.116Z,2.30
2018-11-27T19:55:24.124Z,2.30
2018-11-27T19:57:53.854Z,2.30
2018-11-27T20:00:23.669Z,2.30
2018-11-27T20:02:52.478Z,2.20
2018-11-27T20:05:22.376Z,2.10
2018-11-27T20:07:51.063Z,1.90
2018-11-27T20:10:19.938Z,2.00
2018-11-27T20:12:48.744Z,1.90
2018-11-27T20:15:27.208Z,2.00
2018-11-27T20:17:56.935Z,1.90
2018-11-27T20:20:27.794Z,1.90
2018-11-27T20:22:57.636Z,1.90
2018-11-27T20:25:26.421Z,1.80
2018-11-27T20:27:55.394Z,1.70
2018-11-27T20:30:26.711Z,1.70
2018-11-27T20:32:58.067Z,1.60
2018-11-27T20:35:27.209Z,1.60
2018-11-27T20:37:57.295Z,1.60
2018-11-27T20:40:26.157Z,1.50
2018-11-27T20:42:55.004Z,1.50
2018-11-27T20:45:24.990Z,1.50
2018-11-27T20:48:00.662Z,1.50
2018-11-27T20:50:29.376Z,1.40
2018-11-27T20:52:58.004Z,1.40
2018-11-27T20:55:26.755Z,1.40
2018-11-27T20:57:57.356Z,1.30
2018-11-27T21:00:31.874Z,1.30
2018-11-27T21:03:01.592Z,1.30
2018-11-27T21:05:30.293Z,1.30
2018-11-27T21:07:59.181Z,1.20
2018-11-27T21:10:27.948Z,1.20
2018-11-27T21:12:57.352Z,1.30
2018-11-27T21:15:26.119Z,1.40
2018-11-27T21:17:54.749Z,1.60
2018-11-27T21:20:23.505Z,1.80
2018-11-27T21:22:52.104Z,1.80
2018-11-27T21:25:22.776Z,1.70
2018-11-27T21:27:58.062Z,1.60
2018-11-27T21:30:26.700Z,1.60
2018-11-27T21:32:55.498Z,1.40
2018-11-27T21:35:24.151Z,1.40
2018-11-27T21:37:52.770Z,1.50
2018-11-27T21:40:21.868Z,1.60
2018-11-27T21:42:50.579Z,1.70
2018-11-27T21:45:22.448Z,1.80
2018-11-27T21:47:51.849Z,1.80
2018-11-27T21:50:25.648Z,1.70
2018-11-27T21:52:54.290Z,1.60
2018-11-27T21:55:23.008Z,1.40
2018-11-27T21:57:51.593Z,1.30
2018-11-27T22:00:25.578Z,1.20
2018-11-27T22:02:54.334Z,1.20
2018-11-27T22:05:23.840Z,1.10
2018-11-27T22:07:53.681Z,1.00
2018-11-27T22:10:23.829Z,1.00
2018-11-27T22:12:54.899Z,1.00
2018-11-27T22:15:28.270Z,0.90
2018-11-27T22:17:57.397Z,0.90
2018-11-27T22:20:26.150Z,0.90
2018-11-27T22:22:54.812Z,0.90
2018-11-27T22:25:23.455Z,0.80
2018-11-27T22:27:52.173Z,0.80
2018-11-27T22:30:21.402Z,0.80
2018-11-27T22:32:51.135Z,0.70
2018-11-27T22:35:19.915Z,0.70
2018-11-27T22:37:48.533Z,0.70
2018-11-27T22:40:19.542Z,0.70
2018-11-27T22:42:48.806Z,0.70
2018-11-27T22:45:48.678Z,0.60
2018-11-27T22:48:18.259Z,0.50
2018-11-27T22:50:46.877Z,0.50
2018-11-27T22:53:15.544Z,0.50
2018-11-27T22:55:44.262Z,0.40
2018-11-27T22:58:13.002Z,0.50
2018-11-27T23:00:46.930Z,0.40
2018-11-27T23:03:15.591Z,0.40
2018-11-27T23:05:44.313Z,0.30
2018-11-27T23:08:12.988Z,0.30
2018-11-27T23:10:43.111Z,0.30
2018-11-27T23:13:12.233Z,0.40
2018-11-27T23:15:40.918Z,0.30
2018-11-27T23:18:09.579Z,0.30
2018-11-27T23:20:38.262Z,0.20
2018-11-27T23:23:06.993Z,0.20
2018-11-27T23:25:35.698Z,0.20
2018-11-27T23:28:04.427Z,0.30
2018-11-27T23:30:33.081Z,0.30
2018-11-27T23:33:01.777Z,0.20
2018-11-27T23:35:30.398Z,0.20
2018-11-27T23:37:59.179Z,0.20
2018-11-27T23:40:27.925Z,0.20
2018-11-27T23:42:56.612Z,0.10
2018-11-27T23:45:25.400Z,0.10
2018-11-27T23:47:54.001Z,0.00
2018-11-27T23:50:23.085Z,0.00
2018-11-27T23:52:51.752Z,0.00
2018-11-27T23:55:20.834Z,-0.10
2018-11-27T23:57:49.472Z,-0.20
